Terminal Aerodrome Forecast
Issued by NWS

Home | Current Version | Previous Version | Text Only | Print | Product List | Glossary Off
Versions: 1 2 3 4 5 6 7 8 9 10 11 12 13 14 15 16 17

000
FTUS43 KAPX 180520
TAFTVC
TAF
KTVC 180520Z 1806/1906 25016G25KT P6SM SKC WS020/27040KT
     FM181300 25009KT P6SM VCSH BKN025
     FM181800 23010KT P6SM VCSH OVC030
     FM190000 24007KT P6SM BKN025=

USA.gov is the U.S. government's official web portal to all federal, state and local government web resources and services.